createdAt,value
2017-11-11T00:01:02.277Z,71.34
2017-11-11T00:03:30.793Z,72.45
2017-11-11T00:05:58.961Z,70.28
2017-11-11T00:08:26.695Z,72.35
2017-11-11T00:10:54.477Z,72.90
2017-11-11T00:13:22.304Z,72.54
2017-11-11T00:15:49.917Z,73.37
2017-11-11T00:18:17.529Z,73.89
2017-11-11T00:20:45.099Z,72.91
2017-11-11T00:23:12.756Z,73.20
2017-11-11T00:25:41.077Z,72.69
2017-11-11T00:28:08.679Z,72.99
2017-11-11T00:30:36.300Z,71.79
2017-11-11T00:33:04.093Z,71.16
2017-11-11T00:35:31.901Z,72.00
2017-11-11T00:37:59.917Z,70.80
2017-11-11T00:40:28.266Z,71.83
2017-11-11T00:42:55.801Z,71.35
2017-11-11T00:45:23.596Z,71.54
2017-11-11T00:47:51.464Z,71.85
2017-11-11T00:50:19.246Z,70.32
2017-11-11T00:52:46.921Z,71.61
2017-11-11T00:55:14.526Z,70.20
2017-11-11T00:57:42.185Z,71.00
2017-11-11T01:00:09.968Z,71.04
2017-11-11T01:02:38.634Z,71.56
2017-11-11T01:05:06.514Z,70.92
2017-11-11T01:07:35.014Z,71.30
2017-11-11T01:10:03.194Z,71.22
2017-11-11T01:12:31.609Z,71.03
2017-11-11T01:14:59.213Z,70.58
2017-11-11T01:17:26.981Z,70.67
2017-11-11T01:19:54.814Z,70.99
2017-11-11T01:22:23.263Z,70.95
2017-11-11T01:24:51.873Z,71.48
2017-11-11T01:27:19.732Z,71.41
2017-11-11T01:29:47.581Z,70.98
2017-11-11T01:32:15.675Z,71.26
2017-11-11T01:34:43.483Z,70.41
2017-11-11T01:37:11.293Z,71.19
2017-11-11T01:39:39.099Z,70.98
2017-11-11T01:42:06.702Z,70.93
2017-11-11T01:44:34.321Z,70.52
2017-11-11T01:47:03.668Z,70.41
2017-11-11T01:49:32.003Z,70.00
2017-11-11T01:52:00.910Z,70.37
2017-11-11T01:54:29.790Z,70.72
2017-11-11T01:56:59.353Z,71.42
2017-11-11T01:59:30.710Z,71.92
2017-11-11T02:02:03.785Z,72.53
2017-11-11T02:04:33.645Z,72.75
2017-11-11T02:07:02.888Z,72.07
2017-11-11T02:09:30.795Z,72.05
2017-11-11T02:11:59.271Z,72.08
2017-11-11T02:14:26.896Z,72.77
2017-11-11T02:16:54.685Z,72.46
2017-11-11T02:19:22.353Z,71.18
2017-11-11T02:21:49.987Z,71.45
2017-11-11T02:24:17.786Z,71.91
2017-11-11T02:26:45.362Z,70.99
2017-11-11T02:29:12.992Z,72.25
2017-11-11T02:31:40.592Z,71.76
2017-11-11T02:34:08.240Z,71.70
2017-11-11T02:36:36.741Z,72.41
2017-11-11T02:39:04.665Z,71.88
2017-11-11T02:41:32.269Z,72.01
2017-11-11T02:44:00.452Z,71.30
2017-11-11T02:46:28.124Z,71.76
2017-11-11T02:48:55.947Z,72.18
2017-11-11T02:51:23.574Z,72.31
2017-11-11T02:53:51.252Z,70.35
2017-11-11T02:56:19.083Z,71.49
2017-11-11T02:58:46.945Z,71.46
2017-11-11T03:01:14.535Z,71.32
2017-11-11T03:03:42.335Z,70.58
2017-11-11T03:06:09.982Z,71.22
2017-11-11T03:08:37.605Z,71.26
2017-11-11T03:11:05.992Z,72.00
2017-11-11T03:13:33.789Z,70.66
2017-11-11T03:16:01.402Z,71.80
2017-11-11T03:18:29.224Z,71.02
2017-11-11T03:20:56.778Z,72.53
2017-11-11T03:23:24.576Z,72.49
2017-11-11T03:25:52.180Z,73.37
2017-11-11T03:28:19.782Z,74.51
2017-11-11T03:30:47.431Z,72.31
2017-11-11T03:33:15.043Z,72.41
2017-11-11T03:35:42.909Z,73.34
2017-11-11T03:38:10.529Z,71.98
2017-11-11T03:40:38.959Z,71.70
2017-11-11T03:43:07.056Z,71.84
2017-11-11T03:45:35.597Z,72.64
2017-11-11T03:48:03.246Z,72.11
2017-11-11T03:50:31.002Z,71.86
2017-11-11T03:52:58.588Z,71.20
2017-11-11T03:55:26.205Z,71.46
2017-11-11T03:57:53.779Z,71.30
2017-11-11T04:00:21.425Z,72.05
2017-11-11T04:02:49.062Z,72.26
2017-11-11T04:05:18.159Z,71.21
2017-11-11T04:07:45.849Z,72.25
2017-11-11T04:10:13.509Z,72.01
2017-11-11T04:12:41.456Z,71.71
2017-11-11T04:15:09.081Z,72.10
2017-11-11T04:17:36.652Z,71.99
2017-11-11T04:20:04.483Z,72.32
2017-11-11T04:22:32.126Z,72.32
2017-11-11T04:25:00.206Z,72.27
2017-11-11T04:27:27.929Z,71.70
2017-11-11T04:29:55.539Z,71.51
2017-11-11T04:32:23.824Z,71.38
2017-11-11T04:34:51.383Z,70.33
2017-11-11T04:37:20.014Z,70.89
2017-11-11T04:39:48.884Z,71.57
2017-11-11T04:42:16.694Z,72.04
2017-11-11T04:44:44.348Z,70.74
2017-11-11T04:47:11.983Z,73.06
2017-11-11T04:49:39.747Z,71.79
2017-11-11T04:52:07.474Z,71.91
2017-11-11T04:54:36.120Z,71.97
2017-11-11T04:57:03.941Z,72.90
2017-11-11T04:59:31.647Z,73.36
2017-11-11T05:01:59.393Z,74.66
2017-11-11T05:04:26.988Z,73.23
2017-11-11T05:06:54.681Z,74.10
2017-11-11T05:09:23.233Z,74.25
2017-11-11T05:11:50.940Z,73.33
2017-11-11T05:14:18.775Z,72.73
2017-11-11T05:16:46.416Z,72.15
2017-11-11T05:19:14.096Z,72.40
2017-11-11T05:21:41.664Z,72.72
2017-11-11T05:24:09.367Z,72.85
2017-11-11T05:26:36.896Z,72.78
2017-11-11T05:29:04.650Z,72.14
2017-11-11T05:31:32.497Z,71.99
2017-11-11T05:34:00.510Z,71.54
2017-11-11T05:36:28.108Z,72.07
2017-11-11T05:38:55.679Z,72.37
2017-11-11T05:41:23.438Z,71.68
2017-11-11T05:43:51.004Z,71.94
2017-11-11T05:46:18.674Z,71.60
2017-11-11T05:48:46.225Z,72.27
2017-11-11T05:51:14.699Z,73.24
2017-11-11T05:53:42.305Z,72.22
2017-11-11T05:56:10.140Z,71.76
2017-11-11T05:58:37.717Z,71.53
2017-11-11T06:01:05.338Z,72.12
2017-11-11T06:03:33.108Z,72.37
2017-11-11T06:06:00.633Z,72.88
2017-11-11T06:08:28.210Z,72.31
2017-11-11T06:10:55.754Z,71.69
2017-11-11T06:13:23.374Z,71.05
2017-11-11T06:15:50.960Z,71.35
2017-11-11T06:18:18.513Z,71.36
2017-11-11T06:20:46.084Z,72.12
2017-11-11T06:23:13.705Z,71.32
2017-11-11T06:25:41.296Z,71.13
2017-11-11T06:28:08.968Z,70.90
2017-11-11T06:30:36.548Z,70.59
2017-11-11T06:33:04.356Z,70.42
2017-11-11T06:35:31.935Z,70.79
2017-11-11T06:37:59.561Z,71.98
2017-11-11T06:40:27.127Z,71.25
2017-11-11T06:42:54.733Z,70.66
2017-11-11T06:45:22.305Z,71.74
2017-11-11T06:47:49.829Z,70.65
2017-11-11T06:50:17.391Z,70.00
2017-11-11T06:52:45.277Z,70.34
2017-11-11T06:55:12.901Z,70.26
2017-11-11T06:57:40.786Z,70.45
2017-11-11T07:00:10.569Z,71.09
2017-11-11T07:02:38.169Z,70.36
2017-11-11T07:05:06.691Z,70.20
2017-11-11T07:07:34.320Z,70.83
2017-11-11T07:10:01.949Z,70.58
2017-11-11T07:12:29.767Z,70.63
2017-11-11T07:14:57.453Z,68.62
2017-11-11T07:17:25.040Z,67.83
2017-11-11T07:19:52.848Z,68.18
2017-11-11T07:22:20.490Z,67.38
2017-11-11T07:24:48.070Z,67.32
2017-11-11T07:27:15.836Z,67.69
2017-11-11T07:29:43.883Z,73.21
2017-11-11T07:32:14.437Z,68.43
2017-11-11T07:34:42.069Z,68.33
2017-11-11T07:37:09.651Z,67.26
2017-11-11T07:39:37.330Z,67.08
2017-11-11T07:42:05.133Z,67.32
2017-11-11T07:44:34.542Z,67.44
2017-11-11T07:47:03.797Z,66.75
2017-11-11T07:49:31.325Z,66.17
2017-11-11T07:52:02.490Z,65.79
2017-11-11T07:54:30.111Z,65.16
2017-11-11T07:56:57.892Z,64.93
2017-11-11T07:59:25.500Z,65.80
2017-11-11T08:01:54.359Z,64.76
2017-11-11T08:04:22.058Z,64.90
2017-11-11T08:06:50.612Z,64.34
2017-11-11T08:09:18.273Z,64.52
2017-11-11T08:11:47.048Z,64.70
2017-11-11T08:14:14.747Z,65.86
2017-11-11T08:16:42.412Z,66.20
2017-11-11T08:19:13.609Z,65.98
2017-11-11T08:21:41.235Z,66.11
2017-11-11T08:24:08.934Z,65.60
2017-11-11T08:26:37.562Z,65.74
2017-11-11T08:29:05.422Z,65.35
2017-11-11T08:31:33.060Z,66.33
2017-11-11T08:34:00.810Z,66.58
2017-11-11T08:36:28.480Z,65.96
2017-11-11T08:38:56.128Z,65.86
2017-11-11T08:41:24.376Z,64.83
2017-11-11T08:43:52.013Z,64.43
2017-11-11T08:49:52.424Z,63.70
2017-11-11T08:52:20.128Z,63.62
2017-11-11T08:54:47.792Z,62.30
2017-11-11T08:57:15.700Z,61.44
2017-11-11T08:59:43.398Z,61.72
2017-11-11T09:02:11.701Z,61.78
2017-11-11T09:04:39.514Z,60.98
2017-11-11T09:07:07.277Z,61.41
2017-11-11T09:09:36.363Z,59.54
2017-11-11T09:12:04.065Z,59.68
2017-11-11T09:14:31.956Z,59.89
2017-11-11T09:16:59.624Z,60.01
2017-11-11T09:19:29.226Z,60.06
2017-11-11T09:22:05.608Z,58.94
2017-11-11T09:24:33.243Z,58.70
2017-11-11T09:27:00.925Z,58.80
2017-11-11T09:29:37.978Z,59.64
2017-11-11T09:32:06.359Z,59.13
2017-11-11T09:34:34.386Z,58.85
2017-11-11T09:37:03.095Z,59.43
2017-11-11T09:39:34.020Z,59.74
2017-11-11T09:42:11.223Z,59.11
2017-11-11T09:44:41.874Z,57.24
2017-11-11T09:47:11.471Z,54.27
2017-11-11T09:49:41.412Z,56.41
2017-11-11T09:52:11.559Z,56.54
2017-11-11T09:54:40.552Z,55.01
2017-11-11T09:57:08.298Z,54.44
2017-11-11T09:59:35.971Z,51.97
2017-11-11T10:02:04.716Z,51.90
2017-11-11T10:04:32.535Z,51.43
2017-11-11T10:07:00.208Z,50.58
2017-11-11T10:09:28.844Z,49.83
2017-11-11T10:11:59.582Z,50.19
2017-11-11T10:14:29.660Z,47.79
2017-11-11T10:16:57.215Z,48.45
2017-11-11T10:19:27.621Z,47.81
2017-11-11T10:22:00.384Z,47.87
2017-11-11T10:24:34.663Z,49.96
2017-11-11T10:27:13.779Z,49.02
2017-11-11T10:29:42.552Z,48.57
2017-11-11T10:32:10.256Z,49.55
2017-11-11T10:34:38.325Z,49.57
2017-11-11T10:37:06.692Z,48.60
2017-11-11T10:39:34.289Z,48.25
2017-11-11T10:42:02.674Z,46.60
2017-11-11T10:44:30.483Z,46.72
2017-11-11T10:46:58.186Z,48.02
2017-11-11T10:49:25.817Z,47.53
2017-11-11T10:51:53.479Z,47.95
2017-11-11T10:54:21.115Z,47.66
2017-11-11T10:56:50.610Z,47.95
2017-11-11T10:59:18.217Z,47.35
2017-11-11T11:01:45.873Z,47.75
2017-11-11T11:04:13.554Z,47.35
2017-11-11T11:06:41.186Z,46.66
2017-11-11T11:09:08.911Z,46.67
2017-11-11T11:11:40.161Z,46.73
2017-11-11T11:14:08.013Z,46.66
2017-11-11T11:16:35.663Z,46.05
2017-11-11T11:19:04.073Z,51.77
2017-11-11T11:21:31.824Z,52.11
2017-11-11T11:23:59.457Z,46.67
2017-11-11T11:26:27.615Z,45.22
2017-11-11T11:28:56.497Z,45.16
2017-11-11T11:31:24.302Z,42.31
2017-11-11T11:33:51.868Z,43.04
2017-11-11T11:42:42.900Z,43.86
2017-11-11T11:45:10.560Z,43.93
2017-11-11T11:47:38.471Z,44.31
2017-11-11T11:50:09.074Z,43.31
2017-11-11T11:52:36.714Z,44.08
2017-11-11T11:55:04.391Z,46.46
2017-11-11T11:57:32.124Z,45.82
2017-11-11T12:00:01.807Z,46.63
2017-11-11T12:02:29.465Z,49.01
2017-11-11T12:04:57.048Z,48.36
2017-11-11T12:07:24.752Z,49.45
2017-11-11T12:09:52.623Z,48.97
2017-11-11T12:12:20.407Z,50.41
2017-11-11T12:14:56.616Z,49.76
2017-11-11T12:17:24.190Z,50.78
2017-11-11T12:20:34.191Z,50.92
2017-11-11T12:23:13.058Z,53.99
2017-11-11T12:25:40.915Z,52.32
2017-11-11T12:28:08.460Z,52.04
2017-11-11T12:30:58.589Z,51.74
2017-11-11T12:33:26.190Z,52.57
2017-11-11T12:35:58.812Z,53.04
2017-11-11T12:38:31.465Z,52.42
2017-11-11T12:54:38.680Z,51.97
2017-11-11T12:57:06.292Z,51.90
2017-11-11T12:59:33.911Z,51.86
2017-11-11T13:02:02.489Z,52.10
2017-11-11T13:04:30.896Z,51.87
2017-11-11T13:06:58.456Z,52.57
2017-11-11T13:09:26.612Z,53.48
2017-11-11T13:11:54.242Z,53.59
2017-11-11T13:14:21.867Z,53.83
2017-11-11T13:16:49.553Z,53.72
2017-11-11T13:19:17.755Z,53.79
2017-11-11T13:21:45.572Z,54.14
2017-11-11T13:24:13.278Z,53.88
2017-11-11T13:26:41.790Z,53.96
2017-11-11T13:29:09.367Z,54.72
2017-11-11T13:31:37.769Z,54.80
2017-11-11T13:34:06.257Z,54.69
2017-11-11T13:36:33.878Z,54.35
2017-11-11T13:39:02.259Z,54.41
2017-11-11T13:41:30.027Z,54.34
2017-11-11T13:43:57.630Z,54.75
2017-11-11T13:46:25.269Z,54.49
2017-11-11T13:48:52.888Z,55.12
2017-11-11T13:51:20.463Z,55.27
2017-11-11T13:53:48.095Z,54.83
2017-11-11T13:56:15.630Z,55.22
2017-11-11T13:58:43.165Z,55.52
2017-11-11T14:01:10.826Z,55.34
2017-11-11T14:03:38.704Z,55.99
2017-11-11T14:06:06.304Z,55.99
2017-11-11T14:08:34.101Z,56.06
2017-11-11T14:11:01.676Z,57.05
2017-11-11T14:13:29.232Z,55.58
2017-11-11T14:15:59.931Z,55.61
2017-11-11T14:18:27.549Z,56.40
2017-11-11T14:20:55.157Z,56.74
2017-11-11T14:23:22.791Z,56.15
2017-11-11T14:29:24.608Z,56.26
2017-11-11T14:31:52.251Z,56.52
2017-11-11T14:34:19.841Z,57.25
2017-11-11T14:36:48.720Z,58.39
2017-11-11T14:39:33.269Z,58.90
2017-11-11T14:44:51.710Z,58.10
2017-11-11T14:47:19.527Z,58.61
2017-11-11T14:49:47.956Z,58.54
2017-11-11T14:52:18.967Z,58.91
2017-11-11T14:54:50.301Z,60.50
2017-11-11T14:57:26.115Z,60.27
2017-11-11T15:00:11.134Z,60.35
2017-11-11T15:02:41.341Z,59.53
2017-11-11T15:05:09.104Z,60.72
2017-11-11T15:07:36.762Z,60.71
2017-11-11T15:10:06.104Z,61.23
2017-11-11T15:12:33.862Z,59.62
2017-11-11T15:15:02.292Z,60.07
2017-11-11T15:17:30.092Z,60.97
2017-11-11T15:19:57.996Z,61.25
2017-11-11T15:22:26.428Z,60.28
2017-11-11T15:24:54.154Z,61.15
2017-11-11T15:27:22.775Z,60.51
2017-11-11T15:29:50.454Z,61.09
2017-11-11T15:32:18.151Z,62.10
2017-11-11T15:34:45.841Z,61.98
2017-11-11T15:37:13.856Z,64.14
2017-11-11T15:39:41.870Z,64.48
2017-11-11T15:42:09.500Z,64.68
2017-11-11T15:44:37.151Z,62.20
2017-11-11T15:47:04.801Z,64.92
2017-11-11T15:49:33.124Z,63.71
2017-11-11T15:52:00.764Z,63.68
2017-11-11T15:54:28.484Z,64.51
2017-11-11T15:56:56.538Z,64.98
2017-11-11T15:59:24.203Z,63.77
2017-11-11T16:01:51.870Z,62.10
2017-11-11T16:04:19.681Z,62.87
2017-11-11T16:06:49.095Z,64.41
2017-11-11T16:13:02.363Z,62.57
2017-11-11T16:15:30.204Z,63.25
2017-11-11T16:18:05.298Z,63.26
2017-11-11T16:20:33.081Z,64.38
2017-11-11T16:33:00.729Z,64.94
2017-11-11T16:35:32.425Z,63.89
2017-11-11T17:21:54.817Z,68.77
2017-11-11T17:24:26.033Z,68.15
2017-11-11T17:26:53.736Z,68.96
2017-11-11T17:29:22.740Z,69.43
2017-11-11T17:34:31.393Z,66.82
2017-11-11T17:36:59.884Z,74.28
2017-11-11T17:39:27.729Z,66.08
2017-11-11T17:41:55.778Z,66.04
2017-11-11T17:44:23.611Z,65.48
2017-11-11T17:46:51.376Z,66.49
2017-11-11T17:49:19.785Z,66.19
2017-11-11T17:51:48.429Z,66.30
2017-11-11T17:54:16.154Z,65.60
2017-11-11T17:56:43.900Z,65.29
2017-11-11T17:59:13.260Z,65.58
2017-11-11T18:02:24.703Z,65.07
2017-11-11T18:15:09.769Z,66.34
2017-11-11T18:17:39.485Z,66.40
2017-11-11T18:20:26.927Z,65.80
2017-11-11T18:22:54.693Z,64.84
2017-11-11T18:37:06.928Z,66.88
2017-11-11T18:39:56.957Z,66.94
2017-11-11T18:46:01.189Z,65.10
2017-11-11T18:54:48.962Z,66.65
2017-11-11T18:57:16.788Z,66.60
2017-11-11T18:59:48.201Z,67.90
2017-11-11T19:05:24.067Z,70.61
2017-11-11T19:08:17.411Z,69.22
2017-11-11T19:10:50.083Z,69.25
2017-11-11T19:13:33.120Z,69.59
2017-11-11T19:16:34.710Z,69.02
2017-11-11T19:19:43.676Z,69.14
2017-11-11T19:22:13.153Z,70.19
2017-11-11T19:24:40.889Z,69.66
2017-11-11T19:27:09.885Z,68.64
2017-11-11T19:30:00.037Z,70.25
2017-11-11T19:32:35.231Z,69.50
2017-11-11T19:35:06.233Z,71.28
2017-11-11T19:37:34.682Z,70.83
2017-11-11T19:40:02.516Z,68.79
2017-11-11T19:42:30.243Z,70.51
2017-11-11T19:44:58.691Z,70.82
2017-11-11T19:47:26.323Z,71.09
2017-11-11T19:49:56.135Z,70.51
2017-11-11T19:52:23.755Z,70.98
2017-11-11T19:54:51.413Z,71.13
2017-11-11T19:57:19.223Z,71.15
2017-11-11T19:59:46.998Z,70.82
2017-11-11T20:02:16.965Z,71.15
2017-11-11T20:04:45.215Z,69.99
2017-11-11T20:07:12.911Z,70.83
2017-11-11T20:09:47.491Z,70.21
2017-11-11T20:12:15.184Z,70.83
2017-11-11T20:14:42.857Z,70.82
2017-11-11T20:17:10.526Z,70.48
2017-11-11T20:19:38.169Z,70.69
2017-11-11T20:22:05.921Z,70.57
2017-11-11T20:24:33.541Z,69.98
2017-11-11T20:27:01.228Z,70.55
2017-11-11T20:29:28.825Z,70.35
2017-11-11T20:31:56.437Z,70.54
2017-11-11T20:34:25.441Z,69.87
2017-11-11T20:36:53.272Z,69.62
2017-11-11T20:39:20.969Z,69.94
2017-11-11T20:41:58.175Z,69.88
2017-11-11T20:44:32.606Z,69.62
2017-11-11T20:47:03.012Z,70.18
2017-11-11T20:49:42.723Z,69.65
2017-11-11T20:52:12.622Z,68.87
2017-11-11T20:54:55.758Z,68.26
2017-11-11T20:57:24.337Z,68.22
2017-11-11T20:59:51.956Z,68.38
2017-11-11T21:02:19.579Z,68.44
2017-11-11T21:04:47.413Z,69.63
2017-11-11T21:07:15.001Z,71.31
2017-11-11T21:09:42.750Z,71.73
2017-11-11T21:12:10.871Z,70.15
2017-11-11T21:14:39.425Z,70.11
2017-11-11T21:17:08.021Z,70.63
2017-11-11T21:19:35.907Z,69.32
2017-11-11T21:22:04.880Z,68.66
2017-11-11T21:24:32.693Z,69.28
2017-11-11T21:27:00.440Z,71.17
2017-11-11T21:29:29.270Z,70.49
2017-11-11T21:31:56.965Z,70.41
2017-11-11T21:34:24.713Z,69.61
2017-11-11T21:36:52.287Z,71.29
2017-11-11T21:39:20.149Z,70.34
2017-11-11T21:41:48.595Z,70.54
2017-11-11T21:44:16.371Z,71.43
2017-11-11T21:46:44.658Z,69.68
2017-11-11T21:49:12.275Z,71.95
2017-11-11T21:51:39.900Z,70.81
2017-11-11T21:54:07.523Z,71.23
2017-11-11T21:56:35.160Z,72.25
2017-11-11T21:59:02.981Z,70.74
2017-11-11T22:01:30.652Z,71.15
2017-11-11T22:03:59.365Z,69.20
2017-11-11T22:06:27.604Z,70.06
2017-11-11T22:08:55.263Z,70.15
2017-11-11T22:11:22.929Z,69.66
2017-11-11T22:13:50.611Z,70.15
2017-11-11T22:16:18.277Z,71.28
2017-11-11T22:18:46.509Z,72.10
2017-11-11T22:21:14.082Z,71.07
2017-11-11T22:23:41.773Z,71.13
2017-11-11T22:26:10.429Z,70.20
2017-11-11T22:28:38.273Z,71.18
2017-11-11T22:31:06.832Z,72.00
2017-11-11T22:33:35.450Z,72.47
2017-11-11T22:36:03.077Z,72.92
2017-11-11T22:38:31.720Z,72.36
2017-11-11T22:40:59.297Z,71.96
2017-11-11T22:43:27.807Z,72.10
2017-11-11T22:45:56.205Z,72.80
2017-11-11T22:48:24.138Z,72.80
2017-11-11T22:50:52.316Z,73.22
2017-11-11T22:53:20.066Z,72.85
2017-11-11T22:55:47.997Z,73.84
2017-11-11T22:58:18.432Z,73.37
2017-11-11T23:00:46.128Z,72.95
2017-11-11T23:03:13.783Z,72.52
2017-11-11T23:05:41.436Z,71.56
2017-11-11T23:08:09.138Z,72.63
2017-11-11T23:10:38.540Z,73.35
2017-11-11T23:13:06.130Z,72.24
2017-11-11T23:15:34.242Z,72.49
2017-11-11T23:18:01.879Z,73.25
2017-11-11T23:20:29.537Z,73.22
2017-11-11T23:22:57.585Z,73.19
2017-11-11T23:25:25.560Z,70.94
2017-11-11T23:27:54.175Z,71.77
2017-11-11T23:30:22.019Z,71.31
2017-11-11T23:32:49.870Z,72.92
2017-11-11T23:35:17.563Z,74.06
2017-11-11T23:37:45.710Z,75.64
2017-11-11T23:40:13.627Z,73.97
2017-11-11T23:42:41.346Z,72.64
2017-11-11T23:45:09.984Z,75.05
2017-11-11T23:47:37.593Z,73.46
2017-11-11T23:50:06.078Z,73.51
2017-11-11T23:52:33.720Z,73.90
2017-11-11T23:55:01.410Z,73.09
2017-11-11T23:57:29.064Z,73.14
2017-11-11T23:59:56.853Z,72.52
